sensor_id;sensor_type;location;lat;lon;timestamp;pressure;altitude;pressure_sealevel;temperature;humidity
68489;BME280;55481;48.764;8.936;2024-03-17T00:00:34;97720;;;5.6;77.5
68489;BME280;55481;48.764;8.936;2024-03-17T00:02:51;97710;;;5.6;77.5
68489;BME280;55481;48.764;8.936;2024-03-17T00:05:21;97710;;;5.6;77
68489;BME280;55481;48.764;8.936;2024-03-17T00:10:16;97710;;;5.7;77
68489;BME280;55481;48.764;8.936;2024-03-17T00:13:01;97710;;;5.8;77
68489;BME280;55481;48.764;8.936;2024-03-17T00:15:19;97710;;;5.7;77
68489;BME280;55481;48.764;8.936;2024-03-17T00:17:55;97710;;;5.6;77
68489;BME280;55481;48.764;8.936;2024-03-17T00:20:25;97710;;;5.5;77.5
68489;BME280;55481;48.764;8.936;2024-03-17T00:22:55;97700;;;5.7;76.5
68489;BME280;55481;48.764;8.936;2024-03-17T00:27:49;97710;;;5.6;77
68489;BME280;55481;48.764;8.936;2024-03-17T00:30:20;97710;;;5.5;77
68489;BME280;55481;48.764;8.936;2024-03-17T00:35:17;97710;;;5.4;77
68489;BME280;55481;48.764;8.936;2024-03-17T00:37:47;97700;;;5.3;77.5
68489;BME280;55481;48.764;8.936;2024-03-17T00:40:17;97700;;;5.3;77.5
68489;BME280;55481;48.764;8.936;2024-03-17T00:42:48;97700;;;5.3;77.5
68489;BME280;55481;48.764;8.936;2024-03-17T00:50:23;97690;;;5.4;77
68489;BME280;55481;48.764;8.936;2024-03-17T00:55:27;97680;;;5.3;77
68489;BME280;55481;48.764;8.936;2024-03-17T00:58:05;97690;;;5.2;77.5
68489;BME280;55481;48.764;8.936;2024-03-17T01:00:30;97680;;;5.1;77.5
68489;BME280;55481;48.764;8.936;2024-03-17T01:03:01;97690;;;5.1;77.5
68489;BME280;55481;48.764;8.936;2024-03-17T01:08:02;97690;;;5;77.5
68489;BME280;55481;48.764;8.936;2024-03-17T01:13:11;97680;;;5.2;76.5
68489;BME280;55481;48.764;8.936;2024-03-17T01:15:40;97680;;;5.2;77
68489;BME280;55481;48.764;8.936;2024-03-17T01:20:35;97680;;;5.2;76.5
68489;BME280;55481;48.764;8.936;2024-03-17T01:23:12;97680;;;5.2;76.5
68489;BME280;55481;48.764;8.936;2024-03-17T01:25:43;97680;;;5.2;127.5
68489;BME280;55481;48.764;8.936;2024-03-17T01:33:15;97670;;;5;77
68489;BME280;55481;48.764;8.936;2024-03-17T01:35:45;97660;;;5;77
68489;BME280;55481;48.764;8.936;2024-03-17T01:38:10;97660;;;4.9;77.5
68489;BME280;55481;48.764;8.936;2024-03-17T01:40:41;97660;;;4.9;77.5
68489;BME280;55481;48.764;8.936;2024-03-17T01:43:12;97660;;;4.9;77.5
68489;BME280;55481;48.764;8.936;2024-03-17T01:45:36;97650;;;4.9;77.5
68489;BME280;55481;48.764;8.936;2024-03-17T01:48:08;97650;;;4.8;77.5
68489;BME280;55481;48.764;8.936;2024-03-17T01:53:09;97650;;;4.9;77.5
68489;BME280;55481;48.764;8.936;2024-03-17T01:55:40;97640;;;5;77.5
68489;BME280;55481;48.764;8.936;2024-03-17T01:58:10;97640;;;5;77
68489;BME280;55481;48.764;8.936;2024-03-17T02:00:47;97640;;;5;77.5
68489;BME280;55481;48.764;8.936;2024-03-17T02:03:18;97630;;;5;77.5
68489;BME280;55481;48.764;8.936;2024-03-17T02:05:49;97620;;;4.9;77.5
68489;BME280;55481;48.764;8.936;2024-03-17T02:08:20;97630;;;4.9;77.5
68489;BME280;55481;48.764;8.936;2024-03-17T02:10:44;97630;;;4.9;77.5
68489;BME280;55481;48.764;8.936;2024-03-17T02:13:15;97630;;;4.9;77.5
68489;BME280;55481;48.764;8.936;2024-03-17T02:18:16;97620;;;5.2;77
68489;BME280;55481;48.764;8.936;2024-03-17T02:20:47;97610;;;5.4;76.5
68489;BME280;55481;48.764;8.936;2024-03-17T02:23:18;97610;;;5.5;76
68489;BME280;55481;48.764;8.936;2024-03-17T02:25:49;97610;;;5.7;75.5
68489;BME280;55481;48.764;8.936;2024-03-17T02:28:20;97610;;;5.6;76
68489;BME280;55481;48.764;8.936;2024-03-17T02:30:50;97610;;;5.5;76
68489;BME280;55481;48.764;8.936;2024-03-17T02:33:21;97600;;;5.5;76
68489;BME280;55481;48.764;8.936;2024-03-17T02:35:59;97600;;;5.5;76
68489;BME280;55481;48.764;8.936;2024-03-17T02:38:30;97600;;;5.3;76.5
68489;BME280;55481;48.764;8.936;2024-03-17T02:41:03;97600;;;5.1;77
68489;BME280;55481;48.764;8.936;2024-03-17T02:43:38;97590;;;5.1;77.5
68489;BME280;55481;48.764;8.936;2024-03-17T02:46:16;97590;;;5.3;76.5
68489;BME280;55481;48.764;8.936;2024-03-17T02:48:52;97590;;;5.4;76.5
68489;BME280;55481;48.764;8.936;2024-03-17T02:53:32;97590;;;5.2;76.5
68489;BME280;55481;48.764;8.936;2024-03-17T02:56:03;97590;;;5.1;77
68489;BME280;55481;48.764;8.936;2024-03-17T03:00:58;97590;;;4.9;77.5
68489;BME280;55481;48.764;8.936;2024-03-17T03:03:28;97600;;;5.2;77
68489;BME280;55481;48.764;8.936;2024-03-17T03:05:59;97590;;;5.2;127.5
68489;BME280;55481;48.764;8.936;2024-03-17T03:13:31;97590;;;5.2;76.5
68489;BME280;55481;48.764;8.936;2024-03-17T03:18:39;97590;;;5.3;76.5
68489;BME280;55481;48.764;8.936;2024-03-17T03:21:10;97590;;;5.3;76
68489;BME280;55481;48.764;8.936;2024-03-17T03:23:41;97580;;;5.2;76.5
68489;BME280;55481;48.764;8.936;2024-03-17T03:28:35;97590;;;5;77
68489;BME280;55481;48.764;8.936;2024-03-17T03:31:10;97590;;;4.9;77.5
68489;BME280;55481;48.764;8.936;2024-03-17T03:38:39;97580;;;5.1;76.5
68489;BME280;55481;48.764;8.936;2024-03-17T03:41:10;97580;;;5;76.5
68489;BME280;55481;48.764;8.936;2024-03-17T03:46:17;97580;;;5;76.5
68489;BME280;55481;48.764;8.936;2024-03-17T03:48:48;97580;;;5.1;76.5
68489;BME280;55481;48.764;8.936;2024-03-17T03:51:19;97580;;;5.2;76
68489;BME280;55481;48.764;8.936;2024-03-17T03:56:14;97580;;;5.2;76
68489;BME280;55481;48.764;8.936;2024-03-17T03:58:45;97580;;;4.9;77
68489;BME280;55481;48.764;8.936;2024-03-17T04:01:16;97570;;;4.8;77.5
68489;BME280;55481;48.764;8.936;2024-03-17T04:08:48;97570;;;4.9;76.5
68489;BME280;55481;48.764;8.936;2024-03-17T04:11:19;97570;;;4.8;77
68489;BME280;55481;48.764;8.936;2024-03-17T04:16:33;97580;;;4.6;77.5
68489;BME280;55481;48.764;8.936;2024-03-17T04:19:03;97590;;;4.5;77.5
68489;BME280;55481;48.764;8.936;2024-03-17T04:21:33;97590;;;4.4;77.5
68489;BME280;55481;48.764;8.936;2024-03-17T04:24:04;97590;;;4.4;78
68489;BME280;55481;48.764;8.936;2024-03-17T04:28:58;97580;;;4.4;77.5
68489;BME280;55481;48.764;8.936;2024-03-17T04:31:29;97580;;;4.6;77
68489;BME280;55481;48.764;8.936;2024-03-17T04:34:06;97580;;;4.5;77
68489;BME280;55481;48.764;8.936;2024-03-17T04:38:54;97580;;;4.3;77.5
68489;BME280;55481;48.764;8.936;2024-03-17T04:41:26;97590;;;4.2;77.5
68489;BME280;55481;48.764;8.936;2024-03-17T04:43:56;97590;;;4.1;78
68489;BME280;55481;48.764;8.936;2024-03-17T04:46:27;97590;;;4;78
68489;BME280;55481;48.764;8.936;2024-03-17T04:48:57;97590;;;4;78
68489;BME280;55481;48.764;8.936;2024-03-17T04:51:28;97590;;;4.3;77
68489;BME280;55481;48.764;8.936;2024-03-17T04:53:59;97590;;;4.3;77
68489;BME280;55481;48.764;8.936;2024-03-17T04:56:30;97590;;;4.1;77.5
68489;BME280;55481;48.764;8.936;2024-03-17T05:06:39;97590;;;4;77.5
68489;BME280;55481;48.764;8.936;2024-03-17T05:11:40;97590;;;4.2;77.5
68489;BME280;55481;48.764;8.936;2024-03-17T05:14:11;97590;;;4.3;77
68489;BME280;55481;48.764;8.936;2024-03-17T05:19:06;97580;;;4.6;76.5
68489;BME280;55481;48.764;8.936;2024-03-17T05:21:36;97580;;;4.7;76
68489;BME280;55481;48.764;8.936;2024-03-17T05:24:07;97580;;;4.6;76.5
68489;BME280;55481;48.764;8.936;2024-03-17T05:29:09;97580;;;4.5;77
68489;BME280;55481;48.764;8.936;2024-03-17T05:36:47;97570;;;4.5;76.5
68489;BME280;55481;48.764;8.936;2024-03-17T05:39:18;97580;;;4.3;76.5
68489;BME280;55481;48.764;8.936;2024-03-17T05:41:49;97580;;;4.2;77
68489;BME280;55481;48.764;8.936;2024-03-17T05:44:20;97580;;;4.2;77
68489;BME280;55481;48.764;8.936;2024-03-17T05:46:51;97590;;;4.1;77
68489;BME280;55481;48.764;8.936;2024-03-17T05:49:22;97600;;;4.2;77.5
68489;BME280;55481;48.764;8.936;2024-03-17T05:51:53;97590;;;4.4;77
68489;BME280;55481;48.764;8.936;2024-03-17T05:54:24;97590;;;4.4;76.5
68489;BME280;55481;48.764;8.936;2024-03-17T05:56:55;97580;;;4.3;77
68489;BME280;55481;48.764;8.936;2024-03-17T05:59:26;97580;;;4.2;77
68489;BME280;55481;48.764;8.936;2024-03-17T06:02:03;97580;;;4.2;77.5
68489;BME280;55481;48.764;8.936;2024-03-17T06:04:34;97590;;;4.2;77.5
68489;BME280;55481;48.764;8.936;2024-03-17T06:06:59;97590;;;4.2;77.5
68489;BME280;55481;48.764;8.936;2024-03-17T06:09:30;97580;;;4.5;76.5
68489;BME280;55481;48.764;8.936;2024-03-17T06:12:01;97590;;;4.6;76
68489;BME280;55481;48.764;8.936;2024-03-17T06:16:55;97580;;;4.5;77
68489;BME280;55481;48.764;8.936;2024-03-17T06:19:26;97570;;;4.7;76.5
68489;BME280;55481;48.764;8.936;2024-03-17T06:21:57;97570;;;4.9;76
68489;BME280;55481;48.764;8.936;2024-03-17T06:24:28;97570;;;5;75.5
68489;BME280;55481;48.764;8.936;2024-03-17T06:32:00;97570;;;5.3;75.5
68489;BME280;55481;48.764;8.936;2024-03-17T06:34:38;97560;;;5.3;75
68489;BME280;55481;48.764;8.936;2024-03-17T06:39:38;97570;;;5.1;76.5
68489;BME280;55481;48.764;8.936;2024-03-17T06:42:09;97570;;;5.4;76
68489;BME280;55481;48.764;8.936;2024-03-17T06:47:05;97570;;;5.8;75.5
68489;BME280;55481;48.764;8.936;2024-03-17T06:49:35;97570;;;5.9;75
68489;BME280;55481;48.764;8.936;2024-03-17T06:52:06;97570;;;6;75
68489;BME280;55481;48.764;8.936;2024-03-17T06:57:08;97570;;;6;75.5
68489;BME280;55481;48.764;8.936;2024-03-17T07:02:09;97560;;;6.5;75
68489;BME280;55481;48.764;8.936;2024-03-17T07:04:40;97560;;;6.8;74
68489;BME280;55481;48.764;8.936;2024-03-17T07:07:17;97560;;;6.9;74
68489;BME280;55481;48.764;8.936;2024-03-17T07:09:48;97560;;;6.9;74
68489;BME280;55481;48.764;8.936;2024-03-17T07:12:19;97560;;;6.9;74
68489;BME280;55481;48.764;8.936;2024-03-17T07:17:14;97560;;;6.8;75
68489;BME280;55481;48.764;8.936;2024-03-17T07:19:45;97550;;;6.7;75
68489;BME280;55481;48.764;8.936;2024-03-17T07:22:15;97550;;;6.9;75
68489;BME280;55481;48.764;8.936;2024-03-17T07:29:48;97560;;;7.6;73.5
68489;BME280;55481;48.764;8.936;2024-03-17T07:32:19;97550;;;7.7;74
68489;BME280;55481;48.764;8.936;2024-03-17T07:37:33;97550;;;8.2;73.5
68489;BME280;55481;48.764;8.936;2024-03-17T07:40:03;97550;;;8.2;73.5
68489;BME280;55481;48.764;8.936;2024-03-17T07:42:27;97550;;;8.2;73.5
68489;BME280;55481;48.764;8.936;2024-03-17T07:44:58;97550;;;8.2;74
68489;BME280;55481;48.764;8.936;2024-03-17T07:47:29;97540;;;8.4;74
68489;BME280;55481;48.764;8.936;2024-03-17T08:08:33;97540;;;9.6;73.5
68489;BME280;55481;48.764;8.936;2024-03-17T08:11:03;97540;;;9.6;73.5
68489;BME280;55481;48.764;8.936;2024-03-17T08:13:34;97540;;;9.7;73.5
68489;BME280;55481;48.764;8.936;2024-03-17T08:16:05;97540;;;9.9;73.5
68489;BME280;55481;48.764;8.936;2024-03-17T08:18:35;97530;;;10;73
68489;BME280;55481;48.764;8.936;2024-03-17T08:21:06;97540;;;9.9;73
68489;BME280;55481;48.764;8.936;2024-03-17T08:23:37;97530;;;9.8;73.5
68489;BME280;55481;48.764;8.936;2024-03-17T08:26:14;97530;;;10;73.5
68489;BME280;55481;48.764;8.936;2024-03-17T08:28:45;97530;;;10.1;73.5
68489;BME280;55481;48.764;8.936;2024-03-17T08:31:23;97530;;;10.4;73
68489;BME280;55481;48.764;8.936;2024-03-17T08:36:30;97520;;;10.9;72
68489;BME280;55481;48.764;8.936;2024-03-17T08:38:54;97520;;;11.2;71.5
68489;BME280;55481;48.764;8.936;2024-03-17T08:41:24;97520;;;11.5;71
68489;BME280;55481;48.764;8.936;2024-03-17T08:43:54;97520;;;11.8;70.5
68489;BME280;55481;48.764;8.936;2024-03-17T08:46:25;97520;;;11.8;71
68489;BME280;55481;48.764;8.936;2024-03-17T08:51:19;97510;;;11.7;71.5
68489;BME280;55481;48.764;8.936;2024-03-17T08:53:50;97510;;;11.6;72
68489;BME280;55481;48.764;8.936;2024-03-17T08:56:27;97510;;;11.6;72.5
68489;BME280;55481;48.764;8.936;2024-03-17T08:58:59;97510;;;11.8;72
68489;BME280;55481;48.764;8.936;2024-03-17T09:01:23;97500;;;12;71.5
68489;BME280;55481;48.764;8.936;2024-03-17T09:03:54;97510;;;11.9;72
68489;BME280;55481;48.764;8.936;2024-03-17T09:06:25;97500;;;11.9;72.5
68489;BME280;55481;48.764;8.936;2024-03-17T09:08:49;97500;;;11.9;72.5
68489;BME280;55481;48.764;8.936;2024-03-17T09:11:20;97510;;;11.9;72.5
68489;BME280;55481;48.764;8.936;2024-03-17T09:13:51;97500;;;11.9;72.5
68489;BME280;55481;48.764;8.936;2024-03-17T09:16:21;97500;;;12.3;72
68489;BME280;55481;48.764;8.936;2024-03-17T09:18:52;97490;;;12.5;71.5
68489;BME280;55481;48.764;8.936;2024-03-17T09:34:22;97490;;;11.9;73.5
68489;BME280;55481;48.764;8.936;2024-03-17T09:36:39;97490;;;12;73
68489;BME280;55481;48.764;8.936;2024-03-17T09:39:10;97490;;;12.2;72.5
68489;BME280;55481;48.764;8.936;2024-03-17T09:44:03;97500;;;12;73
68489;BME280;55481;48.764;8.936;2024-03-17T09:46:35;97490;;;12.2;73
68489;BME280;55481;48.764;8.936;2024-03-17T09:49:09;97480;;;12.4;72.5
68489;BME280;55481;48.764;8.936;2024-03-17T09:51:38;97490;;;12.2;72.5
68489;BME280;55481;48.764;8.936;2024-03-17T09:54:17;97490;;;11.8;73.5
68489;BME280;55481;48.764;8.936;2024-03-17T09:56:45;97490;;;12.2;73
68489;BME280;55481;48.764;8.936;2024-03-17T10:04:31;97480;;;13;71.5
68489;BME280;55481;48.764;8.936;2024-03-17T10:09:15;97470;;;12.8;72
68489;BME280;55481;48.764;8.936;2024-03-17T10:11:42;97480;;;12.9;72
68489;BME280;55481;48.764;8.936;2024-03-17T10:14:15;97480;;;12.7;72.5
68489;BME280;55481;48.764;8.936;2024-03-17T10:16:38;97480;;;13.1;71.5
68489;BME280;55481;48.764;8.936;2024-03-17T10:26:41;97470;;;13.7;70.5
68489;BME280;55481;48.764;8.936;2024-03-17T10:29:18;97470;;;13.8;70.5
68489;BME280;55481;48.764;8.936;2024-03-17T10:31:42;97480;;;14.1;69.5
68489;BME280;55481;48.764;8.936;2024-03-17T10:34:26;97480;;;14.1;70
68489;BME280;55481;48.764;8.936;2024-03-17T10:37:05;97480;;;14.1;70
68489;BME280;55481;48.764;8.936;2024-03-17T10:39:27;97480;;;14.1;70
68489;BME280;55481;48.764;8.936;2024-03-17T10:44:20;97480;;;13.6;71.5
68489;BME280;55481;48.764;8.936;2024-03-17T10:46:51;97480;;;13.4;72
68489;BME280;55481;48.764;8.936;2024-03-17T10:49:25;97490;;;13.4;72
68489;BME280;55481;48.764;8.936;2024-03-17T10:52:01;97490;;;13.1;72
68489;BME280;55481;48.764;8.936;2024-03-17T10:59:38;97490;;;12.8;73
68489;BME280;55481;48.764;8.936;2024-03-17T11:02:02;97490;;;13;72.5
68489;BME280;55481;48.764;8.936;2024-03-17T11:04:32;97480;;;13.3;71.5
68489;BME280;55481;48.764;8.936;2024-03-17T11:09:38;97480;;;13.5;71
68489;BME280;55481;48.764;8.936;2024-03-17T11:13:22;97480;;;13.7;71
68489;BME280;55481;48.764;8.936;2024-03-17T11:14:32;97470;;;14;70
68489;BME280;55481;48.764;8.936;2024-03-17T11:17:16;97470;;;14.1;70
68489;BME280;55481;48.764;8.936;2024-03-17T11:21:57;97460;;;14.1;70
68489;BME280;55481;48.764;8.936;2024-03-17T11:24:30;97460;;;14;70
68489;BME280;55481;48.764;8.936;2024-03-17T11:26:59;97460;;;13.9;70.5
68489;BME280;55481;48.764;8.936;2024-03-17T11:29:30;97460;;;13.8;70.5
68489;BME280;55481;48.764;8.936;2024-03-17T11:36:56;97450;;;14.1;70
68489;BME280;55481;48.764;8.936;2024-03-17T11:39:57;97450;;;14.4;69.5
68489;BME280;55481;48.764;8.936;2024-03-17T11:42:03;97450;;;14.6;69
68489;BME280;55481;48.764;8.936;2024-03-17T11:44:28;97450;;;14.8;69
68489;BME280;55481;48.764;8.936;2024-03-17T11:47:06;97450;;;14.7;69
68489;BME280;55481;48.764;8.936;2024-03-17T11:49:37;97440;;;14.8;69
68489;BME280;55481;48.764;8.936;2024-03-17T11:52:11;97440;;;14.3;70
68489;BME280;55481;48.764;8.936;2024-03-17T11:54:32;97440;;;14;70.5
68489;BME280;55481;48.764;8.936;2024-03-17T11:57:03;97440;;;13.8;70.5
68489;BME280;55481;48.764;8.936;2024-03-17T12:04:38;97430;;;14;70
68489;BME280;55481;48.764;8.936;2024-03-17T12:07:07;97440;;;13.9;70
68489;BME280;55481;48.764;8.936;2024-03-17T12:12:08;97420;;;13.8;70
68489;BME280;55481;48.764;8.936;2024-03-17T12:14:37;97420;;;13.8;70
68489;BME280;55481;48.764;8.936;2024-03-17T12:17:09;97420;;;14;70
68489;BME280;55481;48.764;8.936;2024-03-17T12:22:22;97420;;;13.7;70.5
68489;BME280;55481;48.764;8.936;2024-03-17T12:24:50;97420;;;13.9;70
68489;BME280;55481;48.764;8.936;2024-03-17T12:27:19;97410;;;13.9;70
68489;BME280;55481;48.764;8.936;2024-03-17T12:29:48;97410;;;14.1;69.5
68489;BME280;55481;48.764;8.936;2024-03-17T12:32:25;97410;;;14.2;69
68489;BME280;55481;48.764;8.936;2024-03-17T12:37:16;97400;;;14.1;69.5
68489;BME280;55481;48.764;8.936;2024-03-17T12:39:45;97400;;;14.2;69
68489;BME280;55481;48.764;8.936;2024-03-17T12:42:17;97400;;;14.1;69.5
68489;BME280;55481;48.764;8.936;2024-03-17T12:44:47;97390;;;14;69.5
68489;BME280;55481;48.764;8.936;2024-03-17T12:47:18;97390;;;13.9;70
68489;BME280;55481;48.764;8.936;2024-03-17T12:49:49;97380;;;14.1;69.5
68489;BME280;55481;48.764;8.936;2024-03-17T12:52:18;97380;;;14.1;69
68489;BME280;55481;48.764;8.936;2024-03-17T12:54:56;97380;;;14;69.5
68489;BME280;55481;48.764;8.936;2024-03-17T13:05:20;97380;;;14.6;68.5
68489;BME280;55481;48.764;8.936;2024-03-17T13:07:29;97370;;;14.5;69
68489;BME280;55481;48.764;8.936;2024-03-17T13:10:00;97370;;;14.7;68.5
68489;BME280;55481;48.764;8.936;2024-03-17T13:12:31;97370;;;14.7;68.5
68489;BME280;55481;48.764;8.936;2024-03-17T13:17:32;97370;;;14.8;68.5
68489;BME280;55481;48.764;8.936;2024-03-17T13:20:03;97370;;;14.9;68
68489;BME280;55481;48.764;8.936;2024-03-17T13:22:34;97360;;;14.9;68
68489;BME280;55481;48.764;8.936;2024-03-17T13:25:05;97360;;;15.2;68
68489;BME280;55481;48.764;8.936;2024-03-17T13:27:36;97360;;;15.1;68
68489;BME280;55481;48.764;8.936;2024-03-17T13:35:23;97350;;;15.3;67.5
68489;BME280;55481;48.764;8.936;2024-03-17T13:37:58;97350;;;15.2;68
68489;BME280;55481;48.764;8.936;2024-03-17T13:42:39;97350;;;14.9;68.5
68489;BME280;55481;48.764;8.936;2024-03-17T13:45:13;97340;;;15.1;68.5
68489;BME280;55481;48.764;8.936;2024-03-17T13:50:05;97330;;;15.3;67.5
68489;BME280;55481;48.764;8.936;2024-03-17T13:52:37;97330;;;15;68
68489;BME280;55481;48.764;8.936;2024-03-17T14:02:38;97310;;;18;62
68489;BME280;55481;48.764;8.936;2024-03-17T14:05:13;97320;;;17.5;63.5
68489;BME280;55481;48.764;8.936;2024-03-17T14:07:41;97320;;;16.9;65
68489;BME280;55481;48.764;8.936;2024-03-17T14:10:12;97320;;;16.1;67
68489;BME280;55481;48.764;8.936;2024-03-17T14:12:42;97310;;;15.9;67.5
68489;BME280;55481;48.764;8.936;2024-03-17T14:15:13;97310;;;15.7;68
68489;BME280;55481;48.764;8.936;2024-03-17T14:17:57;97300;;;15.9;67.5
68489;BME280;55481;48.764;8.936;2024-03-17T14:20:27;97290;;;16.2;66.5
68489;BME280;55481;48.764;8.936;2024-03-17T14:22:57;97300;;;16.3;66.5
68489;BME280;55481;48.764;8.936;2024-03-17T14:25:21;97300;;;16.2;66
68489;BME280;55481;48.764;8.936;2024-03-17T14:27:59;97300;;;16;67
68489;BME280;55481;48.764;8.936;2024-03-17T14:30:30;97300;;;15.7;67.5
68489;BME280;55481;48.764;8.936;2024-03-17T14:35:18;97310;;;15.2;68
68489;BME280;55481;48.764;8.936;2024-03-17T14:37:48;97310;;;15;68.5
68489;BME280;55481;48.764;8.936;2024-03-17T14:40:19;97300;;;15.1;68
68489;BME280;55481;48.764;8.936;2024-03-17T14:42:51;97300;;;14.9;68.5
68489;BME280;55481;48.764;8.936;2024-03-17T14:45:21;97290;;;15.1;68
68489;BME280;55481;48.764;8.936;2024-03-17T14:47:51;97290;;;15.3;67.5
68489;BME280;55481;48.764;8.936;2024-03-17T14:50:22;97290;;;15.5;67
68489;BME280;55481;48.764;8.936;2024-03-17T14:55:24;97300;;;14.5;69
68489;BME280;55481;48.764;8.936;2024-03-17T15:00:32;97310;;;14.3;68.5
68489;BME280;55481;48.764;8.936;2024-03-17T15:03:03;97300;;;14.2;68.5
68489;BME280;55481;48.764;8.936;2024-03-17T15:05:34;97300;;;14.1;68.5
68489;BME280;55481;48.764;8.936;2024-03-17T15:07:58;97300;;;13.8;69
68489;BME280;55481;48.764;8.936;2024-03-17T15:10:29;97300;;;13.7;69
68489;BME280;55481;48.764;8.936;2024-03-17T15:18:01;97290;;;13.9;68
68489;BME280;55481;48.764;8.936;2024-03-17T15:23:28;97290;;;13.7;68
68489;BME280;55481;48.764;8.936;2024-03-17T15:25:46;97290;;;13.7;68
68489;BME280;55481;48.764;8.936;2024-03-17T15:30:39;97280;;;13.5;68.5
68489;BME280;55481;48.764;8.936;2024-03-17T15:33:17;97280;;;13.5;68.5
68489;BME280;55481;48.764;8.936;2024-03-17T15:35:41;97280;;;13.4;68.5
68489;BME280;55481;48.764;8.936;2024-03-17T15:38:05;97280;;;13.4;68.5
68489;BME280;55481;48.764;8.936;2024-03-17T15:45:37;97280;;;13.3;68.5
68489;BME280;55481;48.764;8.936;2024-03-17T15:48:08;97280;;;13.2;68.5
68489;BME280;55481;48.764;8.936;2024-03-17T15:50:39;97280;;;13.1;68.5
68489;BME280;55481;48.764;8.936;2024-03-17T15:53:09;97280;;;13.2;68.5
68489;BME280;55481;48.764;8.936;2024-03-17T15:55:52;97280;;;13;68.5
68489;BME280;55481;48.764;8.936;2024-03-17T15:58:18;97280;;;12.8;69
68489;BME280;55481;48.764;8.936;2024-03-17T16:00:49;97280;;;12.8;69
68489;BME280;55481;48.764;8.936;2024-03-17T16:03:20;97280;;;12.8;69
68489;BME280;55481;48.764;8.936;2024-03-17T16:05:51;97280;;;12.9;68.5
68489;BME280;55481;48.764;8.936;2024-03-17T16:08:22;97280;;;12.9;68.5
68489;BME280;55481;48.764;8.936;2024-03-17T16:10:59;97280;;;12.8;68.5
68489;BME280;55481;48.764;8.936;2024-03-17T16:15:55;97270;;;12.8;68.5
68489;BME280;55481;48.764;8.936;2024-03-17T16:18:32;97270;;;12.8;68.5
68489;BME280;55481;48.764;8.936;2024-03-17T16:23:36;97270;;;12.7;68.5
68489;BME280;55481;48.764;8.936;2024-03-17T16:26:02;97270;;;12.7;68.5
68489;BME280;55481;48.764;8.936;2024-03-17T16:28:32;97270;;;12.7;68.5
68489;BME280;55481;48.764;8.936;2024-03-17T16:31:03;97270;;;12.7;68.5
68489;BME280;55481;48.764;8.936;2024-03-17T16:33:33;97270;;;12.6;68.5
68489;BME280;55481;48.764;8.936;2024-03-17T16:38:33;97270;;;12.6;68.5
68489;BME280;55481;48.764;8.936;2024-03-17T16:40:58;97260;;;12.6;68.5
68489;BME280;55481;48.764;8.936;2024-03-17T16:44:36;97260;;;12.5;68.5
68489;BME280;55481;48.764;8.936;2024-03-17T16:46:03;97260;;;12.5;68.5
68489;BME280;55481;48.764;8.936;2024-03-17T16:48:31;97260;;;12.6;68.5
68489;BME280;55481;48.764;8.936;2024-03-17T16:51:01;97260;;;12.6;68.5
68489;BME280;55481;48.764;8.936;2024-03-17T16:53:32;97260;;;12.5;68.5
68489;BME280;55481;48.764;8.936;2024-03-17T16:56:03;97260;;;12.5;68.5
68489;BME280;55481;48.764;8.936;2024-03-17T16:58:34;97260;;;12.4;68.5
68489;BME280;55481;48.764;8.936;2024-03-17T17:03:42;97260;;;12.3;69
68489;BME280;55481;48.764;8.936;2024-03-17T17:08:42;97260;;;12.1;69
68489;BME280;55481;48.764;8.936;2024-03-17T17:11:14;97260;;;12.1;69
68489;BME280;55481;48.764;8.936;2024-03-17T17:13:43;97260;;;12;69
68489;BME280;55481;48.764;8.936;2024-03-17T17:16:12;97260;;;12;69
68489;BME280;55481;48.764;8.936;2024-03-17T17:18:58;97260;;;12;69
68489;BME280;55481;48.764;8.936;2024-03-17T17:21:13;97250;;;12;69
68489;BME280;55481;48.764;8.936;2024-03-17T17:23:37;97260;;;11.9;69
68489;BME280;55481;48.764;8.936;2024-03-17T17:26:08;97260;;;11.9;69
68489;BME280;55481;48.764;8.936;2024-03-17T17:28:39;97260;;;11.9;69
68489;BME280;55481;48.764;8.936;2024-03-17T17:31:10;97250;;;11.9;69
68489;BME280;55481;48.764;8.936;2024-03-17T17:36:08;97250;;;11.8;69
68489;BME280;55481;48.764;8.936;2024-03-17T17:38:35;97250;;;11.8;69
68489;BME280;55481;48.764;8.936;2024-03-17T17:41:06;97250;;;11.7;69
68489;BME280;55481;48.764;8.936;2024-03-17T17:48:38;97260;;;11.6;69
68489;BME280;55481;48.764;8.936;2024-03-17T17:51:10;97260;;;11.6;69
68489;BME280;55481;48.764;8.936;2024-03-17T17:53:40;97260;;;11.5;69
68489;BME280;55481;48.764;8.936;2024-03-17T17:56:11;97260;;;11.4;69.5
68489;BME280;55481;48.764;8.936;2024-03-17T17:58:48;97260;;;11.4;69.5
68489;BME280;55481;48.764;8.936;2024-03-17T18:01:19;97250;;;11.4;69
68489;BME280;55481;48.764;8.936;2024-03-17T18:03:50;97250;;;11.4;69
68489;BME280;55481;48.764;8.936;2024-03-17T18:06:13;97250;;;11.4;69
68489;BME280;55481;48.764;8.936;2024-03-17T18:08:45;97250;;;11.3;69
68489;BME280;55481;48.764;8.936;2024-03-17T18:11:16;97250;;;11.3;69
68489;BME280;55481;48.764;8.936;2024-03-17T18:16:17;97250;;;11.2;69.5
68489;BME280;55481;48.764;8.936;2024-03-17T18:18:47;97250;;;11.2;69
68489;BME280;55481;48.764;8.936;2024-03-17T18:23:56;97260;;;11;69.5
68489;BME280;55481;48.764;8.936;2024-03-17T18:26:26;97250;;;10.9;70
68489;BME280;55481;48.764;8.936;2024-03-17T18:31:22;97260;;;10.8;70
68489;BME280;55481;48.764;8.936;2024-03-17T18:33:53;97260;;;10.8;70
68489;BME280;55481;48.764;8.936;2024-03-17T18:36:24;97260;;;10.8;70
68489;BME280;55481;48.764;8.936;2024-03-17T18:38:54;97260;;;10.8;70
68489;BME280;55481;48.764;8.936;2024-03-17T18:41:25;97250;;;10.9;69.5
68489;BME280;55481;48.764;8.936;2024-03-17T18:46:26;97250;;;10.8;69.5
68489;BME280;55481;48.764;8.936;2024-03-17T18:51:34;97260;;;10.7;69.5
68489;BME280;55481;48.764;8.936;2024-03-17T18:54:05;97260;;;10.7;69.5
68489;BME280;55481;48.764;8.936;2024-03-17T18:56:36;97260;;;10.7;69.5
68489;BME280;55481;48.764;8.936;2024-03-17T18:59:07;97270;;;10.6;69.5
68489;BME280;55481;48.764;8.936;2024-03-17T19:01:38;97270;;;10.7;69.5
68489;BME280;55481;48.764;8.936;2024-03-17T19:04:09;97260;;;10.7;69.5
68489;BME280;55481;48.764;8.936;2024-03-17T19:06:40;97260;;;10.7;69.5
68489;BME280;55481;48.764;8.936;2024-03-17T19:09:11;97270;;;10.7;69.5
68489;BME280;55481;48.764;8.936;2024-03-17T19:11:42;97270;;;10.6;69.5
68489;BME280;55481;48.764;8.936;2024-03-17T19:14:06;97280;;;10.6;69.5
68489;BME280;55481;48.764;8.936;2024-03-17T19:16:37;97280;;;10.6;69.5
68489;BME280;55481;48.764;8.936;2024-03-17T19:19:08;97280;;;10.5;69.5